Time;durP1;ratioP1;P1;durP2;ratioP2;P2;SDS_P1;SDS_P2;PMS_P1;PMS_P2;Temp;Humidity;BMP_temperature;BMP_pressure;BME280_temperature;BME280_humidity;BME280_pressure;Samples;Min_cycle;Max_cycle;Signal;HPM_P1;HPM_P2
2024/02/25 00:00:50;;;;;;;0.10;0.10;;;;;;;;;;5073428;28;20081;-87
2024/02/25 00:03:16;;;;;;;0.20;0.20;;;;;;;;;;5057096;28;20044;-87
2024/02/25 00:05:42;;;;;;;0.20;0.20;;;;;;;;;;5057026;28;20039;-87
2024/02/25 00:08:08;;;;;;;0.10;0.10;;;;;;;;;;5057874;28;20048;-87
2024/02/25 00:10:35;;;;;;;0.15;0.15;;;;;;;;;;5060499;28;20130;-87
2024/02/25 00:13:01;;;;;;;0.10;0.10;;;;;;;;;;5060599;28;20083;-86
2024/02/25 00:15:27;;;;;;;0.10;0.10;;;;;;;;;;5060710;28;20203;-86
2024/02/25 00:17:53;;;;;;;0.10;0.10;;;;;;;;;;5077183;28;20044;-87
2024/02/25 00:20:19;;;;;;;0.10;0.10;;;;;;;;;;5077719;28;20131;-87
2024/02/25 00:22:45;;;;;;;0.10;0.10;;;;;;;;;;5077291;28;20411;-87
2024/02/25 00:25:11;;;;;;;0.10;0.10;;;;;;;;;;5060580;28;20424;-87
2024/02/25 00:27:37;;;;;;;0.10;0.10;;;;;;;;;;5077103;28;20107;-87
2024/02/25 00:30:03;;;;;;;0.10;0.10;;;;;;;;;;5060422;28;20466;-86
2024/02/25 00:32:29;;;;;;;0.38;0.20;;;;;;;;;;5076996;28;20044;-87
2024/02/25 00:34:55;;;;;;;0.10;0.10;;;;;;;;;;5060138;28;20078;-87
2024/02/25 00:37:21;;;;;;;0.10;0.10;;;;;;;;;;5060241;28;20476;-87
2024/02/25 00:39:48;;;;;;;0.10;0.10;;;;;;;;;;5059965;28;20039;-87
2024/02/25 00:42:14;;;;;;;0.10;0.10;;;;;;;;;;5059763;28;20032;-86
2024/02/25 00:44:43;;;;;;;0.10;0.10;;;;;;;;;;5059824;28;20043;-87
2024/02/25 00:47:09;;;;;;;0.20;0.20;;;;;;;;;;5060527;28;20043;-86
2024/02/25 00:49:35;;;;;;;0.10;0.10;;;;;;;;;;5060182;28;20036;-86
2024/02/25 00:52:01;;;;;;;0.10;0.10;;;;;;;;;;5059675;28;20071;-87
2024/02/25 00:54:27;;;;;;;0.20;0.20;;;;;;;;;;5059800;28;20044;-86
2024/02/25 00:56:54;;;;;;;0.10;0.10;;;;;;;;;;5059765;28;20032;-87
2024/02/25 00:59:20;;;;;;;0.10;0.10;;;;;;;;;;5076839;28;20070;-87
2024/02/25 01:01:47;;;;;;;0.68;0.68;;;;;;;;;;5059489;28;20048;-87
2024/02/25 01:04:13;;;;;;;0.10;0.10;;;;;;;;;;5059440;28;20128;-87
2024/02/25 01:06:41;;;;;;;0.10;0.10;;;;;;;;;;5059584;28;20036;-87
2024/02/25 01:09:09;;;;;;;0.20;0.20;;;;;;;;;;5076078;28;20079;-86
2024/02/25 01:11:36;;;;;;;0.10;0.10;;;;;;;;;;5059984;28;20131;-87
2024/02/25 01:14:02;;;;;;;0.10;0.10;;;;;;;;;;5059320;28;20043;-87
2024/02/25 01:16:28;;;;;;;0.10;0.10;;;;;;;;;;5059564;28;20044;-86
2024/02/25 01:18:55;;;;;;;0.20;0.20;;;;;;;;;;5059474;28;20047;-87
2024/02/25 01:21:22;;;;;;;0.10;0.10;;;;;;;;;;5059540;28;20100;-87
2024/02/25 01:23:48;;;;;;;0.15;0.15;;;;;;;;;;5075696;28;20075;-86
2024/02/25 01:26:14;;;;;;;0.10;0.10;;;;;;;;;;5059397;28;20058;-87
2024/02/25 01:28:40;;;;;;;0.10;0.10;;;;;;;;;;5059342;28;20439;-86
2024/02/25 01:31:06;;;;;;;0.20;0.20;;;;;;;;;;5075866;28;20544;-86
2024/02/25 01:33:32;;;;;;;0.10;0.10;;;;;;;;;;5058933;28;20043;-86
2024/02/25 01:35:58;;;;;;;2.08;0.38;;;;;;;;;;5075592;28;20047;-87
2024/02/25 01:38:24;;;;;;;0.20;0.20;;;;;;;;;;5059242;28;20368;-86
2024/02/25 01:40:50;;;;;;;0.10;0.10;;;;;;;;;;5075525;28;20483;-86
2024/02/25 01:43:17;;;;;;;0.10;0.10;;;;;;;;;;5075823;28;20123;-86
2024/02/25 01:45:44;;;;;;;0.10;0.10;;;;;;;;;;5075424;28;20540;-87
2024/02/25 01:48:10;;;;;;;0.10;0.10;;;;;;;;;;5058938;28;20074;-87
2024/02/25 01:50:39;;;;;;;0.10;0.10;;;;;;;;;;5075277;28;20117;-87
2024/02/25 01:53:07;;;;;;;0.20;0.20;;;;;;;;;;5058903;28;20058;-87
2024/02/25 01:55:33;;;;;;;0.10;0.10;;;;;;;;;;5058594;28;20085;-86
2024/02/25 01:58:05;;;;;;;0.10;0.10;;;;;;;;;;5075513;28;20048;-87
2024/02/25 02:00:33;;;;;;;0.30;0.30;;;;;;;;;;5058923;28;20117;-87
2024/02/25 02:02:59;;;;;;;0.10;0.10;;;;;;;;;;5058673;28;20083;-89
2024/02/25 02:05:28;;;;;;;0.20;0.20;;;;;;;;;;5058509;28;20036;-87
2024/02/25 02:07:54;;;;;;;0.10;0.10;;;;;;;;;;5075075;28;20047;-87
2024/02/25 02:10:20;;;;;;;0.50;0.50;;;;;;;;;;5058297;28;20093;-87
2024/02/25 02:12:47;;;;;;;0.10;0.10;;;;;;;;;;5058212;28;20184;-87
2024/02/25 02:15:13;;;;;;;0.10;0.10;;;;;;;;;;5074891;28;20536;-87
2024/02/25 02:17:42;;;;;;;0.20;0.20;;;;;;;;;;5058100;28;20043;-87
2024/02/25 02:20:12;;;;;;;0.10;0.10;;;;;;;;;;5074436;28;20090;-86
2024/02/25 02:22:41;;;;;;;1.35;0.20;;;;;;;;;;5057994;28;20052;-87
2024/02/25 02:25:07;;;;;;;0.20;0.20;;;;;;;;;;5074663;28;20039;-87
2024/02/25 02:27:36;;;;;;;0.10;0.10;;;;;;;;;;5057967;28;20036;-86
2024/02/25 02:30:03;;;;;;;0.10;0.10;;;;;;;;;;5074527;28;20047;-86
2024/02/25 02:32:29;;;;;;;0.10;0.10;;;;;;;;;;5057614;28;20040;-87
2024/02/25 02:34:55;;;;;;;0.10;0.10;;;;;;;;;;5074675;28;20036;-86
2024/02/25 02:37:21;;;;;;;0.10;0.10;;;;;;;;;;5057907;28;20115;-86
2024/02/25 02:39:47;;;;;;;0.10;0.10;;;;;;;;;;5057684;28;20078;-86
2024/02/25 02:42:13;;;;;;;0.10;0.10;;;;;;;;;;5057706;28;20041;-86
2024/02/25 02:44:39;;;;;;;0.20;0.20;;;;;;;;;;5058018;28;20056;-86
2024/02/25 02:47:06;;;;;;;0.10;0.10;;;;;;;;;;5057636;28;20032;-86
2024/02/25 02:49:32;;;;;;;0.10;0.10;;;;;;;;;;5074431;28;20040;-86
2024/02/25 02:51:59;;;;;;;0.10;0.10;;;;;;;;;;5057929;28;20391;-86
2024/02/25 02:54:27;;;;;;;0.10;0.10;;;;;;;;;;5074434;28;20044;-86
2024/02/25 02:56:53;;;;;;;0.10;0.10;;;;;;;;;;5057718;28;20126;-86
2024/02/25 02:59:22;;;;;;;0.17;0.17;;;;;;;;;;5057687;28;20044;-86
2024/02/25 03:01:49;;;;;;;0.10;0.10;;;;;;;;;;5090871;28;20052;-86
2024/02/25 03:04:15;;;;;;;0.20;0.20;;;;;;;;;;5074217;28;20036;-86
2024/02/25 03:06:41;;;;;;;0.20;0.20;;;;;;;;;;5057786;28;20122;-86
2024/02/25 03:09:08;;;;;;;0.15;0.15;;;;;;;;;;5057645;28;20089;-86
2024/02/25 03:11:34;;;;;;;0.30;0.30;;;;;;;;;;5057410;28;20044;-86
2024/02/25 03:14:01;;;;;;;0.20;0.20;;;;;;;;;;5074399;28;20036;-86
2024/02/25 03:16:27;;;;;;;0.20;0.20;;;;;;;;;;5074309;28;20109;-86
2024/02/25 03:18:53;;;;;;;0.10;0.10;;;;;;;;;;5074077;28;20468;-86
2024/02/25 03:21:19;;;;;;;0.10;0.10;;;;;;;;;;5057403;28;20082;-86
2024/02/25 03:23:45;;;;;;;0.10;0.10;;;;;;;;;;5057491;28;20036;-87
2024/02/25 03:26:19;;;;;;;0.17;0.17;;;;;;;;;;5074025;28;20084;-86
2024/02/25 03:28:45;;;;;;;0.10;0.10;;;;;;;;;;5057450;28;20039;-86
2024/02/25 03:31:11;;;;;;;0.10;0.10;;;;;;;;;;5058025;28;20040;-87
2024/02/25 03:33:37;;;;;;;0.10;0.10;;;;;;;;;;5057497;28;20065;-86
2024/02/25 03:36:04;;;;;;;0.10;0.10;;;;;;;;;;5057619;28;20051;-86
2024/02/25 03:38:30;;;;;;;0.10;0.10;;;;;;;;;;5057521;28;20050;-86
2024/02/25 03:40:56;;;;;;;0.10;0.10;;;;;;;;;;5074057;28;20415;-87
2024/02/25 03:43:22;;;;;;;0.10;0.10;;;;;;;;;;5058655;28;20036;-87
2024/02/25 03:45:48;;;;;;;0.15;0.15;;;;;;;;;;5061468;28;20506;-87
2024/02/25 03:48:14;;;;;;;0.10;0.10;;;;;;;;;;5078238;28;20390;-87
2024/02/25 03:50:40;;;;;;;0.10;0.10;;;;;;;;;;5078228;28;20089;-87
2024/02/25 03:53:07;;;;;;;0.10;0.10;;;;;;;;;;5061313;28;20047;-87
2024/02/25 03:55:33;;;;;;;0.10;0.10;;;;;;;;;;5078136;28;20433;-87
2024/02/25 03:57:59;;;;;;;0.30;0.30;;;;;;;;;;5060967;28;20047;-87
2024/02/25 04:00:25;;;;;;;0.13;0.13;;;;;;;;;;5094133;28;20066;-87
2024/02/25 04:02:51;;;;;;;0.10;0.10;;;;;;;;;;5077979;28;20048;-87
2024/02/25 04:05:17;;;;;;;0.10;0.10;;;;;;;;;;5077526;28;20036;-87
2024/02/25 04:07:43;;;;;;;0.10;0.10;;;;;;;;;;5061051;28;20040;-87
2024/02/25 04:10:10;;;;;;;0.10;0.10;;;;;;;;;;5077400;28;20039;-87
2024/02/25 04:12:39;;;;;;;0.10;0.10;;;;;;;;;;5077444;28;20040;-87
2024/02/25 04:15:06;;;;;;;0.10;0.10;;;;;;;;;;5061207;28;20562;-87
2024/02/25 04:17:32;;;;;;;0.10;0.10;;;;;;;;;;5077750;28;20391;-87
2024/02/25 04:19:58;;;;;;;0.10;0.10;;;;;;;;;;5077747;28;20475;-87
2024/02/25 04:22:25;;;;;;;0.25;0.17;;;;;;;;;;5060508;28;20048;-86
2024/02/25 04:24:51;;;;;;;0.10;0.10;;;;;;;;;;5077735;28;20040;-86
2024/02/25 04:27:17;;;;;;;0.10;0.10;;;;;;;;;;5077241;28;20089;-88
2024/02/25 04:29:44;;;;;;;0.10;0.10;;;;;;;;;;5077720;28;20043;-88
2024/02/25 04:32:10;;;;;;;0.10;0.10;;;;;;;;;;5077148;28;20075;-87
2024/02/25 04:34:36;;;;;;;0.10;0.10;;;;;;;;;;5060454;28;20040;-87
2024/02/25 04:37:05;;;;;;;0.52;0.40;;;;;;;;;;5060089;28;20126;-87
2024/02/25 04:39:31;;;;;;;0.10;0.10;;;;;;;;;;5077052;28;20047;-87
2024/02/25 04:41:57;;;;;;;0.28;0.28;;;;;;;;;;5076645;28;20421;-87
2024/02/25 04:44:24;;;;;;;0.13;0.13;;;;;;;;;;5076943;28;20111;-87
2024/02/25 04:46:50;;;;;;;0.10;0.10;;;;;;;;;;5059839;28;20065;-87
2024/02/25 04:49:16;;;;;;;0.10;0.10;;;;;;;;;;5076473;28;20483;-87
2024/02/25 04:51:43;;;;;;;0.10;0.10;;;;;;;;;;5059684;28;20036;-87
2024/02/25 04:54:10;;;;;;;0.10;0.10;;;;;;;;;;5075941;28;20070;-87
2024/02/25 04:56:45;;;;;;;0.10;0.10;;;;;;;;;;5060164;28;20814;-86
2024/02/25 04:59:11;;;;;;;0.10;0.10;;;;;;;;;;5059511;28;20039;-87
2024/02/25 05:01:44;;;;;;;0.55;0.30;;;;;;;;;;5076070;28;20055;-86
2024/02/25 05:04:10;;;;;;;0.10;0.10;;;;;;;;;;5076295;28;20044;-86
2024/02/25 05:06:37;;;;;;;0.10;0.10;;;;;;;;;;5076299;28;20043;-86
2024/02/25 05:09:03;;;;;;;0.10;0.10;;;;;;;;;;5076153;28;20036;-87
2024/02/25 05:11:30;;;;;;;0.17;0.17;;;;;;;;;;5059464;28;20062;-86
2024/02/25 05:13:57;;;;;;;0.45;0.30;;;;;;;;;;5059568;28;20040;-87
2024/02/25 05:16:23;;;;;;;0.10;0.10;;;;;;;;;;5059473;28;20067;-86
2024/02/25 05:18:49;;;;;;;0.10;0.10;;;;;;;;;;5059326;28;20050;-87
2024/02/25 05:21:15;;;;;;;0.10;0.10;;;;;;;;;;5075638;28;20126;-87
2024/02/25 05:23:41;;;;;;;0.10;0.10;;;;;;;;;;5075882;28;20040;-87
2024/02/25 05:26:07;;;;;;;0.10;0.10;;;;;;;;;;5076095;28;20039;-87
2024/02/25 05:28:34;;;;;;;0.10;0.10;;;;;;;;;;5076011;28;20399;-87
2024/02/25 05:31:00;;;;;;;0.10;0.10;;;;;;;;;;5059290;28;20086;-87
2024/02/25 05:33:26;;;;;;;0.10;0.10;;;;;;;;;;5059104;28;20043;-88
2024/02/25 05:35:53;;;;;;;0.30;0.30;;;;;;;;;;5075861;28;20390;-87
2024/02/25 05:38:19;;;;;;;0.10;0.10;;;;;;;;;;5059301;28;20051;-88
2024/02/25 05:40:45;;;;;;;0.10;0.10;;;;;;;;;;5058998;28;20395;-88
2024/02/25 05:43:11;;;;;;;0.10;0.10;;;;;;;;;;5075444;28;20032;-88
2024/02/25 05:45:37;;;;;;;0.10;0.10;;;;;;;;;;5075731;28;20566;-88
2024/02/25 05:48:03;;;;;;;0.10;0.10;;;;;;;;;;5058712;28;20086;-87
2024/02/25 05:50:29;;;;;;;0.20;0.20;;;;;;;;;;5058542;28;20071;-87
2024/02/25 05:52:56;;;;;;;0.10;0.10;;;;;;;;;;5075359;28;20043;-87
2024/02/25 05:55:22;;;;;;;0.17;0.17;;;;;;;;;;5091959;28;20067;-87
2024/02/25 05:57:48;;;;;;;0.20;0.20;;;;;;;;;;5058727;28;20050;-87
2024/02/25 06:00:14;;;;;;;0.10;0.10;;;;;;;;;;5074744;28;20192;-87
2024/02/25 06:02:40;;;;;;;0.10;0.10;;;;;;;;;;5059168;28;20048;-88
2024/02/25 06:05:10;;;;;;;0.10;0.10;;;;;;;;;;5059149;28;20040;-87
2024/02/25 06:07:36;;;;;;;0.15;0.15;;;;;;;;;;5058425;28;20036;-87
2024/02/25 06:10:02;;;;;;;0.30;0.30;;;;;;;;;;5075164;28;20045;-87
2024/02/25 06:12:31;;;;;;;0.10;0.10;;;;;;;;;;5058702;28;20036;-87
2024/02/25 06:14:57;;;;;;;0.13;0.13;;;;;;;;;;5075414;28;20181;-87
2024/02/25 06:17:23;;;;;;;0.10;0.10;;;;;;;;;;5058406;28;20051;-88
2024/02/25 06:19:50;;;;;;;0.20;0.20;;;;;;;;;;5091710;28;20120;-88
2024/02/25 06:22:17;;;;;;;0.20;0.20;;;;;;;;;;5074906;28;20036;-88
2024/02/25 06:24:43;;;;;;;0.15;0.15;;;;;;;;;;5058741;28;20071;-88
2024/02/25 06:27:09;;;;;;;0.10;0.10;;;;;;;;;;5058509;28;20032;-88
2024/02/25 06:29:35;;;;;;;0.20;0.20;;;;;;;;;;5058104;28;20036;-87
2024/02/25 06:32:02;;;;;;;0.10;0.10;;;;;;;;;;5057902;28;20043;-88
2024/02/25 06:34:28;;;;;;;0.10;0.10;;;;;;;;;;5058344;28;20044;-87
2024/02/25 06:36:56;;;;;;;0.20;0.20;;;;;;;;;;5074678;28;20070;-87
2024/02/25 06:39:22;;;;;;;0.13;0.13;;;;;;;;;;5074319;28;20047;-87
2024/02/25 06:41:48;;;;;;;0.70;0.30;;;;;;;;;;5057817;28;20048;-86
2024/02/25 06:44:14;;;;;;;0.10;0.10;;;;;;;;;;5057999;28;20044;-87
2024/02/25 06:46:40;;;;;;;0.10;0.10;;;;;;;;;;5057729;28;20036;-87
2024/02/25 06:49:06;;;;;;;0.73;0.22;;;;;;;;;;5057711;28;20036;-87
2024/02/25 06:51:33;;;;;;;0.10;0.10;;;;;;;;;;5057693;28;20040;-87
2024/02/25 06:53:59;;;;;;;0.10;0.10;;;;;;;;;;5057650;28;20691;-87
2024/02/25 06:56:25;;;;;;;0.10;0.10;;;;;;;;;;5074288;28;20074;-86
2024/02/25 06:58:51;;;;;;;0.10;0.10;;;;;;;;;;5074261;28;20044;-86
2024/02/25 07:01:19;;;;;;;0.20;0.20;;;;;;;;;;5057082;28;20052;-86
2024/02/25 07:03:45;;;;;;;0.10;0.10;;;;;;;;;;5057939;28;20128;-87
2024/02/25 07:06:17;;;;;;;0.10;0.10;;;;;;;;;;5074389;28;20040;-87
2024/02/25 07:08:44;;;;;;;0.10;0.10;;;;;;;;;;5091071;28;20092;-87
2024/02/25 07:11:14;;;;;;;0.20;0.20;;;;;;;;;;5057454;28;20044;-86
2024/02/25 07:13:41;;;;;;;0.20;0.20;;;;;;;;;;5074388;28;20040;-87
2024/02/25 07:16:07;;;;;;;0.17;0.17;;;;;;;;;;5057453;28;20036;-86
2024/02/25 07:18:33;;;;;;;0.10;0.10;;;;;;;;;;5060799;28;20483;-86
2024/02/25 07:20:59;;;;;;;0.10;0.10;;;;;;;;;;5061331;28;20612;-89
2024/02/25 07:23:25;;;;;;;0.10;0.10;;;;;;;;;;5078108;28;20090;-86
2024/02/25 07:25:51;;;;;;;0.20;0.20;;;;;;;;;;5078075;28;20032;-87
2024/02/25 07:28:18;;;;;;;0.10;0.10;;;;;;;;;;5061474;28;20042;-87
2024/02/25 07:30:44;;;;;;;0.10;0.10;;;;;;;;;;5061508;28;20040;-86
2024/02/25 07:33:10;;;;;;;0.10;0.10;;;;;;;;;;5061687;28;20085;-86
2024/02/25 07:35:37;;;;;;;0.10;0.10;;;;;;;;;;5078248;28;20127;-86
2024/02/25 07:38:03;;;;;;;0.10;0.10;;;;;;;;;;5077940;28;20036;-86
2024/02/25 07:40:29;;;;;;;0.65;0.52;;;;;;;;;;5061053;28;20126;-86
2024/02/25 07:42:56;;;;;;;0.10;0.10;;;;;;;;;;5077609;28;20113;-86
2024/02/25 07:45:22;;;;;;;0.10;0.10;;;;;;;;;;5061111;28;20047;-86
2024/02/25 07:47:48;;;;;;;0.10;0.10;;;;;;;;;;5060950;28;20118;-86
2024/02/25 07:50:14;;;;;;;0.10;0.10;;;;;;;;;;5060969;28;20127;-86
2024/02/25 07:52:40;;;;;;;0.10;0.10;;;;;;;;;;5077453;28;20501;-86
2024/02/25 07:55:08;;;;;;;0.10;0.10;;;;;;;;;;5060748;28;20075;-86
2024/02/25 07:57:35;;;;;;;0.20;0.20;;;;;;;;;;5060942;28;20071;-86
2024/02/25 08:00:04;;;;;;;0.10;0.10;;;;;;;;;;5060830;28;20364;-86
2024/02/25 08:02:34;;;;;;;0.10;0.10;;;;;;;;;;5077715;28;20091;-86
2024/02/25 08:05:01;;;;;;;0.30;0.30;;;;;;;;;;5060791;28;20113;-86
2024/02/25 08:07:28;;;;;;;0.10;0.10;;;;;;;;;;5060854;28;20032;-87
2024/02/25 08:09:54;;;;;;;0.10;0.10;;;;;;;;;;5060681;28;20040;-87
2024/02/25 08:12:20;;;;;;;0.10;0.10;;;;;;;;;;5060615;28;20075;-88
2024/02/25 08:14:46;;;;;;;0.10;0.10;;;;;;;;;;5061665;28;20040;-94
2024/02/25 08:17:12;;;;;;;0.10;0.10;;;;;;;;;;5077977;28;20051;-89
2024/02/25 08:19:39;;;;;;;0.10;0.10;;;;;;;;;;5060519;28;20047;-86
2024/02/25 08:22:05;;;;;;;0.10;0.10;;;;;;;;;;5060213;28;20086;-87
2024/02/25 08:24:31;;;;;;;0.10;0.10;;;;;;;;;;5094373;28;20036;-88
2024/02/25 08:26:57;;;;;;;0.10;0.10;;;;;;;;;;5064617;28;20093;-86
2024/02/25 08:29:23;;;;;;;0.10;0.10;;;;;;;;;;5075592;28;20036;-87
2024/02/25 08:31:49;;;;;;;0.10;0.10;;;;;;;;;;5071589;28;20047;-93
2024/02/25 08:34:15;;;;;;;0.10;0.10;;;;;;;;;;5080626;28;20043;-88
2024/02/25 08:36:41;;;;;;;0.10;0.10;;;;;;;;;;5080198;28;20482;-88
2024/02/25 08:39:07;;;;;;;0.10;0.10;;;;;;;;;;5079377;28;20270;-88
2024/02/25 08:41:33;;;;;;;0.20;0.20;;;;;;;;;;5096569;28;20131;-88
2024/02/25 08:44:00;;;;;;;0.10;0.10;;;;;;;;;;5080497;28;20036;-90
2024/02/25 08:46:26;;;;;;;0.10;0.10;;;;;;;;;;5077121;28;20119;-90
2024/02/25 08:48:52;;;;;;;0.10;0.10;;;;;;;;;;5077263;28;20043;-95
2024/02/25 08:51:18;;;;;;;0.10;0.10;;;;;;;;;;5060449;28;20461;-89
2024/02/25 08:53:44;;;;;;;0.10;0.10;;;;;;;;;;5060709;28;20040;-87
2024/02/25 08:56:10;;;;;;;0.10;0.10;;;;;;;;;;5076466;28;20039;-88
2024/02/25 08:58:36;;;;;;;0.10;0.10;;;;;;;;;;5076401;28;20226;-89
2024/02/25 09:01:02;;;;;;;0.10;0.10;;;;;;;;;;5059715;28;20052;-88
2024/02/25 09:03:29;;;;;;;0.10;0.10;;;;;;;;;;5077049;28;20119;-88
2024/02/25 09:05:55;;;;;;;0.30;0.30;;;;;;;;;;5059780;28;20040;-88
2024/02/25 09:08:22;;;;;;;0.10;0.10;;;;;;;;;;5059662;28;20035;-88
2024/02/25 09:10:48;;;;;;;0.20;0.20;;;;;;;;;;5060109;28;20044;-88
2024/02/25 09:13:14;;;;;;;0.10;0.10;;;;;;;;;;5076430;28;20435;-89
2024/02/25 09:15:41;;;;;;;0.10;0.10;;;;;;;;;;5059949;28;20046;-89
2024/02/25 09:18:07;;;;;;;0.10;0.10;;;;;;;;;;5093082;28;20044;-88
2024/02/25 09:20:35;;;;;;;0.20;0.20;;;;;;;;;;5059340;28;20040;-88
2024/02/25 09:23:04;;;;;;;0.10;0.10;;;;;;;;;;5059630;28;20040;-88
2024/02/25 09:25:33;;;;;;;0.10;0.10;;;;;;;;;;5059649;28;20040;-89
2024/02/25 09:28:03;;;;;;;0.10;0.10;;;;;;;;;;5076543;28;20054;-88
2024/02/25 09:30:29;;;;;;;0.10;0.10;;;;;;;;;;5059282;28;20043;-87
2024/02/25 09:32:55;;;;;;;0.15;0.15;;;;;;;;;;5059114;28;20096;-88
2024/02/25 09:35:21;;;;;;;0.20;0.20;;;;;;;;;;5076945;28;20051;-88
2024/02/25 09:37:47;;;;;;;0.20;0.20;;;;;;;;;;5058986;28;20073;-88
2024/02/25 09:40:13;;;;;;;0.10;0.10;;;;;;;;;;5074843;28;20097;-88
2024/02/25 09:42:40;;;;;;;0.10;0.10;;;;;;;;;;5058437;28;20051;-91
2024/02/25 09:45:07;;;;;;;0.10;0.10;;;;;;;;;;5058840;28;20063;-87
2024/02/25 09:47:33;;;;;;;0.20;0.20;;;;;;;;;;5058750;28;20506;-89
2024/02/25 09:49:59;;;;;;;0.10;0.10;;;;;;;;;;5088729;28;20546;-88
2024/02/25 09:52:25;;;;;;;0.10;0.10;;;;;;;;;;5079207;28;20084;-88
2024/02/25 09:54:51;;;;;;;0.10;0.10;;;;;;;;;;5078791;28;20479;-86
2024/02/25 09:57:17;;;;;;;0.10;0.10;;;;;;;;;;5079662;28;20040;-88
2024/02/25 09:59:43;;;;;;;0.10;0.10;;;;;;;;;;5078863;28;20100;-88
2024/02/25 10:02:09;;;;;;;0.10;0.10;;;;;;;;;;5095189;28;20063;-88
2024/02/25 10:04:36;;;;;;;0.10;0.10;;;;;;;;;;5078522;28;20122;-87
2024/02/25 10:07:03;;;;;;;0.20;0.20;;;;;;;;;;5095305;28;20479;-87
2024/02/25 10:09:32;;;;;;;0.10;0.10;;;;;;;;;;5078701;28;20058;-88
2024/02/25 10:11:58;;;;;;;0.10;0.10;;;;;;;;;;5079016;28;20040;-85
2024/02/25 10:14:25;;;;;;;0.20;0.20;;;;;;;;;;5078432;28;20063;-86
2024/02/25 10:17:10;;;;;;;0.10;0.10;;;;;;;;;;5078409;28;20052;-88
2024/02/25 10:19:36;;;;;;;0.22;0.22;;;;;;;;;;5095255;28;20051;-85
2024/02/25 10:22:05;;;;;;;0.20;0.20;;;;;;;;;;5078234;28;20096;-86
2024/02/25 10:24:32;;;;;;;0.10;0.10;;;;;;;;;;5112113;28;20032;-87
2024/02/25 10:27:11;;;;;;;0.20;0.20;;;;;;;;;;5078687;28;20099;-86
2024/02/25 10:29:53;;;;;;;0.10;0.10;;;;;;;;;;5077407;28;20084;-84
2024/02/25 10:32:26;;;;;;;0.10;0.10;;;;;;;;;;5074113;28;20395;-84
2024/02/25 10:34:52;;;;;;;0.13;0.13;;;;;;;;;;5058347;28;20395;-84
2024/02/25 10:37:20;;;;;;;0.10;0.10;;;;;;;;;;5058064;28;20402;-85
2024/02/25 10:39:46;;;;;;;0.10;0.10;;;;;;;;;;5057617;28;20069;-84
2024/02/25 10:42:12;;;;;;;0.10;0.10;;;;;;;;;;5071397;28;20123;-84
2024/02/25 10:44:38;;;;;;;0.10;0.10;;;;;;;;;;5074302;28;20109;-83
2024/02/25 10:47:07;;;;;;;0.10;0.10;;;;;;;;;;5074175;28;20131;-83
2024/02/25 10:49:33;;;;;;;0.10;0.10;;;;;;;;;;5057584;28;20475;-84
2024/02/25 10:51:59;;;;;;;0.10;0.10;;;;;;;;;;5063675;28;20100;-83
2024/02/25 10:54:25;;;;;;;0.10;0.10;;;;;;;;;;5077220;28;20044;-84
2024/02/25 10:56:51;;;;;;;0.10;0.10;;;;;;;;;;5095404;28;20047;-83
2024/02/25 10:59:17;;;;;;;0.20;0.20;;;;;;;;;;5077486;28;20039;-84
2024/02/25 11:01:44;;;;;;;0.10;0.10;;;;;;;;;;5111729;28;20058;-85
2024/02/25 11:04:11;;;;;;;0.10;0.10;;;;;;;;;;5113537;28;20093;-85
2024/02/25 11:06:39;;;;;;;0.30;0.30;;;;;;;;;;5077379;28;20093;-84
2024/02/25 11:09:13;;;;;;;0.10;0.10;;;;;;;;;;5094420;28;20047;-83
2024/02/25 11:11:40;;;;;;;0.10;0.10;;;;;;;;;;5077185;28;20071;-84
2024/02/25 11:14:06;;;;;;;0.10;0.10;;;;;;;;;;5076946;28;20085;-83
2024/02/25 11:16:36;;;;;;;0.10;0.10;;;;;;;;;;5110928;28;20043;-84
2024/02/25 11:19:03;;;;;;;0.17;0.17;;;;;;;;;;5076830;28;20067;-83
2024/02/25 11:21:35;;;;;;;0.10;0.10;;;;;;;;;;5072800;28;20044;-84
2024/02/25 11:24:01;;;;;;;0.10;0.10;;;;;;;;;;5074939;28;20036;-84
2024/02/25 11:26:33;;;;;;;0.10;0.10;;;;;;;;;;5056969;28;20088;-83
2024/02/25 11:29:18;;;;;;;0.10;0.10;;;;;;;;;;5091993;28;20039;-83
2024/02/25 11:31:48;;;;;;;0.10;0.10;;;;;;;;;;5091452;28;20040;-84
2024/02/25 11:34:14;;;;;;;0.10;0.10;;;;;;;;;;5110042;28;20039;-84
2024/02/25 11:36:40;;;;;;;0.13;0.13;;;;;;;;;;5077014;28;20096;-85
2024/02/25 11:39:07;;;;;;;0.10;0.10;;;;;;;;;;5076102;28;20040;-86
2024/02/25 11:41:33;;;;;;;0.20;0.20;;;;;;;;;;5077237;28;20046;-85
2024/02/25 11:44:00;;;;;;;0.10;0.10;;;;;;;;;;5076745;28;20125;-84
2024/02/25 11:46:26;;;;;;;0.10;0.10;;;;;;;;;;5093976;28;20039;-84
2024/02/25 11:48:53;;;;;;;0.10;0.10;;;;;;;;;;5093710;28;20439;-84
2024/02/25 11:51:19;;;;;;;0.10;0.10;;;;;;;;;;5076831;28;20046;-83
2024/02/25 11:53:51;;;;;;;0.10;0.10;;;;;;;;;;5077004;28;20043;-83
2024/02/25 11:56:17;;;;;;;0.20;0.20;;;;;;;;;;5110735;28;20474;-83
2024/02/25 11:58:44;;;;;;;0.10;0.10;;;;;;;;;;5093361;28;20100;-84
2024/02/25 12:01:10;;;;;;;0.10;0.10;;;;;;;;;;5076543;28;20056;-84
2024/02/25 12:03:40;;;;;;;0.20;0.20;;;;;;;;;;5076816;28;20541;-84
2024/02/25 12:06:06;;;;;;;0.10;0.10;;;;;;;;;;5097622;28;20069;-84
2024/02/25 12:08:32;;;;;;;0.10;0.10;;;;;;;;;;5080512;28;20517;-85
2024/02/25 12:11:00;;;;;;;0.10;0.10;;;;;;;;;;5080490;28;20130;-84
2024/02/25 12:13:27;;;;;;;0.10;0.10;;;;;;;;;;5081123;28;20050;-84
2024/02/25 12:15:53;;;;;;;0.20;0.20;;;;;;;;;;5076765;28;20067;-84
2024/02/25 12:18:19;;;;;;;0.10;0.10;;;;;;;;;;5079632;28;20114;-84
2024/02/25 12:20:45;;;;;;;0.20;0.20;;;;;;;;;;5079659;28;20513;-84
2024/02/25 12:23:11;;;;;;;0.10;0.10;;;;;;;;;;5076901;28;20082;-84
2024/02/25 12:25:37;;;;;;;0.10;0.10;;;;;;;;;;5092773;28;20433;-86
2024/02/25 12:28:07;;;;;;;0.10;0.10;;;;;;;;;;5097324;28;20103;-86
2024/02/25 12:30:35;;;;;;;0.10;0.10;;;;;;;;;;5075811;28;20047;-86
2024/02/25 12:33:08;;;;;;;0.38;0.38;;;;;;;;;;5076521;28;20119;-84
2024/02/25 12:35:34;;;;;;;;;;;;;;;;;;5067449;28;20028;-85
2024/02/25 12:38:00;;;;;;;0.10;0.10;;;;;;;;;;5096630;28;20302;-85
2024/02/25 12:40:26;;;;;;;0.20;0.20;;;;;;;;;;5096837;28;20089;-86
2024/02/25 12:42:53;;;;;;;0.10;0.10;;;;;;;;;;5096589;28;20104;-86
2024/02/25 12:45:22;;;;;;;0.10;0.10;;;;;;;;;;5096605;28;20042;-85
2024/02/25 12:47:48;;;;;;;0.10;0.10;;;;;;;;;;5079983;28;20078;-86
2024/02/25 12:50:15;;;;;;;0.20;0.20;;;;;;;;;;5079562;28;20035;-86
2024/02/25 12:52:42;;;;;;;0.30;0.30;;;;;;;;;;5079439;28;20047;-85
2024/02/25 12:55:10;;;;;;;0.45;0.45;;;;;;;;;;5080272;28;20126;-86
2024/02/25 12:57:37;;;;;;;0.10;0.10;;;;;;;;;;5080129;28;20101;-86
2024/02/25 13:00:06;;;;;;;0.10;0.10;;;;;;;;;;5096485;28;20127;-85
2024/02/25 13:02:32;;;;;;;0.10;0.10;;;;;;;;;;5079248;28;20414;-85
2024/02/25 13:04:59;;;;;;;0.10;0.10;;;;;;;;;;5079574;28;20063;-86
2024/02/25 13:07:25;;;;;;;0.10;0.10;;;;;;;;;;5075945;28;20047;-84
2024/02/25 13:09:52;;;;;;;0.10;0.10;;;;;;;;;;5105268;28;20042;-85
2024/02/25 13:12:18;;;;;;;0.10;0.10;;;;;;;;;;5095714;28;20502;-84
2024/02/25 13:14:44;;;;;;;0.20;0.20;;;;;;;;;;5075445;28;20074;-85
2024/02/25 13:17:12;;;;;;;0.10;0.10;;;;;;;;;;5059410;28;20043;-84
2024/02/25 13:19:38;;;;;;;0.10;0.10;;;;;;;;;;5059822;28;20044;-84
2024/02/25 13:22:04;;;;;;;0.10;0.10;;;;;;;;;;5059199;28;20067;-85
2024/02/25 13:24:30;;;;;;;0.10;0.10;;;;;;;;;;5059043;28;20072;-84
2024/02/25 13:26:56;;;;;;;0.10;0.10;;;;;;;;;;5059288;28;20054;-84
2024/02/25 13:29:23;;;;;;;0.10;0.10;;;;;;;;;;5076116;28;20052;-84
2024/02/25 13:31:49;;;;;;;0.45;0.45;;;;;;;;;;5075638;28;20043;-85
2024/02/25 13:34:16;;;;;;;0.20;0.20;;;;;;;;;;5092672;28;20042;-85
2024/02/25 13:36:42;;;;;;;0.20;0.20;;;;;;;;;;5059003;28;20097;-85
2024/02/25 13:39:08;;;;;;;0.10;0.10;;;;;;;;;;5092427;28;20527;-85
2024/02/25 13:41:34;;;;;;;0.10;0.10;;;;;;;;;;5058934;28;20084;-86
2024/02/25 13:44:00;;;;;;;0.10;0.10;;;;;;;;;;5075859;28;20051;-85
2024/02/25 13:46:27;;;;;;;0.20;0.20;;;;;;;;;;5076131;28;20040;-85
2024/02/25 13:48:53;;;;;;;0.10;0.10;;;;;;;;;;5058880;28;20110;-86
2024/02/25 13:51:21;;;;;;;0.10;0.10;;;;;;;;;;5092251;28;20051;-88
2024/02/25 13:53:48;;;;;;;0.20;0.20;;;;;;;;;;5058842;28;20067;-88
2024/02/25 13:56:14;;;;;;;0.20;0.20;;;;;;;;;;5059721;28;20043;-88
2024/02/25 13:58:41;;;;;;;0.10;0.10;;;;;;;;;;5059110;28;20055;-88
2024/02/25 14:01:07;;;;;;;0.10;0.10;;;;;;;;;;5058487;28;20052;-88
2024/02/25 14:03:33;;;;;;;0.10;0.10;;;;;;;;;;5058686;28;20552;-89
2024/02/25 14:05:59;;;;;;;0.10;0.10;;;;;;;;;;5058820;28;20043;-88
2024/02/25 14:08:25;;;;;;;0.10;0.10;;;;;;;;;;5074882;28;20036;-88
2024/02/25 14:10:51;;;;;;;0.30;0.20;;;;;;;;;;5058518;28;20036;-88
2024/02/25 14:13:17;;;;;;;0.10;0.10;;;;;;;;;;5075313;28;20119;-88
2024/02/25 14:15:44;;;;;;;0.20;0.20;;;;;;;;;;5058365;28;20043;-87
2024/02/25 14:18:11;;;;;;;0.20;0.20;;;;;;;;;;5058230;28;20131;-88
2024/02/25 14:20:37;;;;;;;0.10;0.10;;;;;;;;;;5058227;28;20043;-88
2024/02/25 14:23:07;;;;;;;0.10;0.10;;;;;;;;;;5074708;28;20097;-88
2024/02/25 14:25:33;;;;;;;0.10;0.10;;;;;;;;;;5058965;28;20031;-87
2024/02/25 14:27:59;;;;;;;0.10;0.10;;;;;;;;;;5057649;28;20039;-88
2024/02/25 14:30:25;;;;;;;0.10;0.10;;;;;;;;;;5074576;28;20039;-86
2024/02/25 14:32:51;;;;;;;0.10;0.10;;;;;;;;;;5058234;28;20329;-86
2024/02/25 14:35:18;;;;;;;0.10;0.10;;;;;;;;;;5075090;28;20043;-86
2024/02/25 14:37:44;;;;;;;0.10;0.10;;;;;;;;;;5057885;28;20463;-86
2024/02/25 14:40:10;;;;;;;0.10;0.10;;;;;;;;;;5057655;28;20040;-86